KTGI

Tangier Island Airport

Tangier, Virginia, USA
METAR KTGI 141046Z AUTO 35003KT 5SM CLR 04/04 A3038 RMK AO1
Observed Flight Rules
Dec-14 @ 10:46 UTC (3 hours ago) Marginal Visual Flight Rules
Wind Visibility Clouds
350° at 3 knots 5 miles
  • Clear skies
Temperatures Readings
Current 4°C / 39°F
Dewpoint 4°C / 39°F
Humidity 100%
Altimeter 30.38" Hg
Pressure 1029 hPa
Elevation 2
METAR KTGI 141046Z AUTO 35003KT 5SM CLR 04/04 A3038 RMK AO1
Observed Flight Rules
Dec-14 @ 10:46 UTC
(3 hours ago)
MVFR
Wind Visibility
350° at 3 knots 5 miles
Clouds
  • Clear skies
Temperature Dewpoint
4°C / 39°F 4°C / 39°F
Humidity Altimeter Pressure
100% 30.38" Hg 1029 hPa